Yoder, Wyoming
Current Conditions -  °F | °C
As of 6:53 PM on Friday 21 Nov 2014 (Local Time) from KTOR Reporting Station
Clear Clear  
Wind Chill: 34°   Ceiling: Unl
Heat Index: 34°   Visibility: 10mi
Dew Point: 20°   Wind: 0mph
Humidity: 56%   Direction: NA
Pressure: 29.88"   Gusts: NA
Location:  41.92°N, 104.3°W
Report Text: KTOR 220153Z AUTO 00000KT 10SM CLR 01/M07 A2988 RMK AO2 SLP143 T00111067
Loading
Personal Weather Stations






























Interactive Weather Map New forecast layout! Learn more

10-Day Weather Forecast

Advertisements
Track Severe Weather on mobile